createdAt,value
2019-05-20T00:01:39.872Z,52.64
2019-05-20T00:04:11.253Z,52.61
2019-05-20T00:06:43.619Z,52.71
2019-05-20T00:09:15.091Z,52.82
2019-05-20T00:11:48.054Z,52.97
2019-05-20T00:14:21.584Z,53.17
2019-05-20T00:16:52.997Z,53.45
2019-05-20T00:19:24.610Z,53.38
2019-05-20T00:21:56.009Z,53.19
2019-05-20T00:24:28.773Z,53.44
2019-05-20T00:27:00.680Z,53.38
2019-05-20T00:29:32.167Z,53.41
2019-05-20T00:32:03.647Z,53.46
2019-05-20T00:34:35.811Z,53.21
2019-05-20T00:37:09.232Z,53.13
2019-05-20T00:39:40.635Z,52.14
2019-05-20T00:42:14.132Z,51.49
2019-05-20T00:44:45.601Z,51.42
2019-05-20T00:47:17.042Z,51.41
2019-05-20T00:49:48.454Z,51.23
2019-05-20T00:52:21.040Z,51.08
2019-05-20T00:54:52.431Z,51.22
2019-05-20T00:57:25.683Z,50.99
2019-05-20T00:59:57.692Z,51.19
2019-05-20T01:02:29.131Z,51.34
2019-05-20T01:05:00.529Z,51.22
2019-05-20T01:07:32.071Z,51.35
2019-05-20T01:10:04.480Z,50.84
2019-05-20T01:12:35.919Z,51.09
2019-05-20T01:15:10.666Z,51.51
2019-05-20T01:17:42.064Z,51.24
2019-05-20T01:20:14.474Z,51.60
2019-05-20T01:22:47.532Z,51.54
2019-05-20T01:25:19.994Z,51.70
2019-05-20T01:27:53.537Z,51.46
2019-05-20T01:30:25.525Z,51.97
2019-05-20T01:33:12.777Z,52.10
2019-05-20T01:35:32.053Z,52.22
2019-05-20T01:38:03.499Z,52.63
2019-05-20T01:40:34.915Z,53.36
2019-05-20T01:43:06.422Z,53.73
2019-05-20T01:45:38.877Z,53.46
2019-05-20T01:48:10.330Z,52.85
2019-05-20T01:50:43.063Z,52.53
2019-05-20T01:53:15.468Z,52.49
2019-05-20T01:55:46.784Z,52.55
2019-05-20T01:58:20.354Z,52.64
2019-05-20T02:00:51.818Z,53.05
2019-05-20T02:03:31.537Z,52.80
2019-05-20T02:05:59.815Z,52.82
2019-05-20T02:08:31.223Z,53.03
2019-05-20T02:11:02.699Z,53.25
2019-05-20T02:13:52.147Z,53.35
2019-05-20T02:16:25.158Z,53.46
2019-05-20T02:18:57.596Z,53.61
2019-05-20T02:21:30.017Z,53.36
2019-05-20T02:24:04.764Z,53.58
2019-05-20T02:26:35.576Z,53.90
2019-05-20T02:29:07.128Z,54.34
2019-05-20T02:31:38.552Z,55.11
2019-05-20T02:34:10.041Z,54.55
2019-05-20T02:36:41.459Z,54.41
2019-05-20T02:39:12.857Z,54.33
2019-05-20T02:41:44.438Z,54.35
2019-05-20T02:44:15.883Z,54.09
2019-05-20T02:46:47.580Z,54.07
2019-05-20T02:49:19.016Z,53.44
2019-05-20T02:51:50.554Z,53.56
2019-05-20T02:54:22.051Z,53.88
2019-05-20T02:56:53.444Z,53.95
2019-05-20T02:59:24.940Z,53.61
2019-05-20T03:01:56.486Z,53.90
2019-05-20T03:04:29.111Z,54.53
2019-05-20T03:07:01.617Z,54.41
2019-05-20T03:09:34.025Z,53.90
2019-05-20T03:12:05.468Z,53.97
2019-05-20T03:14:38.938Z,53.59
2019-05-20T03:17:12.365Z,54.13
2019-05-20T03:19:43.758Z,54.07
2019-05-20T03:22:15.204Z,53.76
2019-05-20T03:24:46.659Z,53.22
2019-05-20T03:27:18.120Z,53.73
2019-05-20T03:29:49.513Z,53.63
2019-05-20T03:32:21.003Z,53.75
2019-05-20T03:34:59.276Z,53.98
2019-05-20T03:37:26.371Z,53.97
2019-05-20T03:39:57.723Z,54.06
2019-05-20T03:42:29.215Z,53.92
2019-05-20T03:45:00.635Z,53.56
2019-05-20T03:47:32.032Z,53.63
2019-05-20T03:50:08.565Z,53.72
2019-05-20T03:52:42.011Z,53.03
2019-05-20T03:55:13.654Z,53.59
2019-05-20T03:57:45.103Z,53.56
2019-05-20T04:00:18.067Z,52.46
2019-05-20T04:02:49.498Z,52.16
2019-05-20T04:05:20.959Z,51.85
2019-05-20T04:07:53.362Z,51.40
2019-05-20T04:10:24.806Z,51.39
2019-05-20T04:12:56.261Z,50.59
2019-05-20T04:15:27.720Z,49.77
2019-05-20T04:17:59.243Z,50.75
2019-05-20T04:20:30.770Z,50.77
2019-05-20T04:23:02.319Z,50.57
2019-05-20T04:25:33.882Z,48.59
2019-05-20T04:28:05.481Z,47.54
2019-05-20T04:30:36.968Z,45.77
2019-05-20T04:33:08.527Z,42.34
2019-05-20T04:35:39.919Z,40.35
2019-05-20T04:38:11.557Z,39.25
2019-05-20T04:40:44.499Z,38.30
2019-05-20T04:43:15.904Z,36.71
2019-05-20T04:45:48.467Z,36.06
2019-05-20T04:48:20.374Z,35.28
2019-05-20T04:50:51.976Z,35.74
2019-05-20T04:53:23.543Z,35.43
2019-05-20T04:55:54.950Z,32.45
2019-05-20T04:58:26.454Z,31.76
2019-05-20T05:00:58.643Z,31.71
2019-05-20T05:03:30.152Z,30.71
2019-05-20T05:06:01.499Z,30.09
2019-05-20T05:08:33.033Z,31.03
2019-05-20T05:11:04.529Z,31.57
2019-05-20T05:13:35.949Z,30.89
2019-05-20T05:16:07.580Z,31.36
2019-05-20T05:18:40.150Z,32.46
2019-05-20T05:21:11.698Z,31.34
2019-05-20T05:23:58.355Z,29.87
2019-05-20T05:26:17.459Z,29.37
2019-05-20T05:28:50.521Z,27.78
2019-05-20T05:31:21.987Z,28.43
2019-05-20T05:33:54.427Z,28.79
2019-05-20T05:36:28.039Z,27.53
2019-05-20T05:41:34.908Z,26.48
2019-05-20T05:44:06.529Z,27.57
2019-05-20T05:46:38.096Z,28.19
2019-05-20T05:51:41.243Z,29.31
2019-05-20T05:54:12.713Z,27.43
2019-05-20T05:56:44.138Z,26.62
2019-05-20T05:59:16.275Z,26.44
2019-05-20T06:01:47.787Z,28.76
2019-05-20T06:04:20.255Z,25.97
2019-05-20T06:06:53.714Z,25.47
2019-05-20T06:09:25.618Z,25.67
2019-05-20T06:12:04.870Z,26.20
2019-05-20T06:14:37.590Z,26.38
2019-05-20T06:17:09.105Z,26.63
2019-05-20T06:19:40.738Z,25.72
2019-05-20T06:22:14.754Z,26.21
2019-05-20T06:24:45.622Z,24.41
2019-05-20T06:27:16.901Z,23.93
2019-05-20T06:29:50.532Z,25.34
2019-05-20T06:32:22.956Z,24.26
2019-05-20T06:34:55.447Z,24.29
2019-05-20T06:37:40.904Z,23.91
2019-05-20T06:40:12.574Z,24.59
2019-05-20T06:42:46.613Z,25.28
2019-05-20T06:45:18.581Z,25.36
2019-05-20T06:47:51.195Z,26.05
2019-05-20T06:50:22.865Z,24.87
2019-05-20T06:52:55.577Z,24.84
2019-05-20T06:55:29.817Z,24.37
2019-05-20T06:58:02.384Z,25.43
2019-05-20T07:00:38.447Z,25.91
2019-05-20T07:03:11.117Z,24.30
2019-05-20T07:05:44.705Z,25.20
2019-05-20T07:08:23.236Z,24.86
2019-05-20T07:10:59.048Z,25.66
2019-05-20T07:13:34.250Z,25.98
2019-05-20T07:16:10.671Z,25.48
2019-05-20T07:18:49.749Z,24.55
2019-05-20T07:21:25.983Z,25.83
2019-05-20T07:24:06.978Z,25.14
2019-05-20T07:26:43.199Z,24.51
2019-05-20T07:29:20.684Z,24.23
2019-05-20T07:31:55.455Z,23.65
2019-05-20T07:34:36.959Z,24.53
2019-05-20T07:37:17.427Z,25.15
2019-05-20T07:39:58.165Z,25.72
2019-05-20T07:42:39.111Z,25.45
2019-05-20T07:45:15.965Z,25.84
2019-05-20T07:47:50.257Z,24.96
2019-05-20T07:50:29.964Z,25.00
2019-05-20T07:53:14.132Z,24.95
2019-05-20T07:56:02.961Z,24.85
2019-05-20T07:58:46.976Z,23.67
2019-05-20T08:01:27.760Z,26.00
2019-05-20T08:04:11.711Z,26.53
2019-05-20T08:06:44.443Z,23.70
2019-05-20T08:09:17.677Z,24.43
2019-05-20T08:11:50.285Z,26.70
2019-05-20T08:14:23.313Z,25.42
2019-05-20T08:16:55.947Z,25.23
2019-05-20T08:19:29.027Z,26.30
2019-05-20T08:22:02.922Z,27.61
2019-05-20T08:24:35.855Z,30.03
2019-05-20T08:27:08.895Z,29.43
2019-05-20T08:29:42.261Z,29.36
2019-05-20T08:32:15.492Z,29.18
2019-05-20T08:34:48.228Z,29.18
2019-05-20T08:37:22.316Z,28.50
2019-05-20T08:39:57.218Z,30.41
2019-05-20T08:42:32.332Z,31.65
2019-05-20T08:45:09.438Z,30.51
2019-05-20T08:47:47.063Z,30.18
2019-05-20T08:50:19.199Z,30.38
2019-05-20T08:52:52.646Z,30.86
2019-05-20T08:55:26.897Z,30.66
2019-05-20T08:58:02.108Z,31.57
2019-05-20T09:00:34.439Z,31.21
2019-05-20T09:03:08.359Z,31.10
2019-05-20T09:05:40.411Z,31.14
2019-05-20T09:08:13.618Z,31.39
2019-05-20T09:10:46.472Z,31.48
2019-05-20T09:13:18.363Z,31.99
2019-05-20T09:15:49.919Z,32.46
2019-05-20T09:18:22.603Z,32.11
2019-05-20T09:20:56.146Z,31.97
2019-05-20T09:23:27.601Z,31.30
2019-05-20T09:25:59.155Z,32.02
2019-05-20T09:28:31.882Z,32.29
2019-05-20T09:31:07.977Z,30.77
2019-05-20T09:33:40.830Z,30.92
2019-05-20T09:36:17.607Z,30.92
2019-05-20T09:38:49.126Z,30.88
2019-05-20T09:41:20.879Z,31.63
2019-05-20T09:43:52.507Z,31.34
2019-05-20T09:46:32.669Z,32.35
2019-05-20T09:49:04.236Z,32.45
2019-05-20T09:51:36.239Z,31.63
2019-05-20T09:54:07.904Z,31.94
2019-05-20T09:56:39.349Z,31.13
2019-05-20T09:59:16.884Z,31.36
2019-05-20T10:01:50.401Z,32.00
2019-05-20T10:04:22.217Z,32.03
2019-05-20T10:06:58.378Z,31.84
2019-05-20T10:09:37.328Z,32.13
2019-05-20T10:12:08.963Z,31.69
2019-05-20T10:14:40.524Z,32.18
2019-05-20T10:17:12.155Z,31.67
2019-05-20T10:19:43.654Z,31.09
2019-05-20T10:22:17.660Z,31.52
2019-05-20T10:24:49.267Z,30.63
2019-05-20T10:27:22.243Z,30.63
2019-05-20T10:29:55.022Z,30.90
2019-05-20T10:32:26.569Z,31.08
2019-05-20T10:34:59.611Z,30.10
2019-05-20T10:37:31.214Z,30.61
2019-05-20T10:40:02.710Z,30.58
2019-05-20T10:42:36.691Z,30.06
2019-05-20T10:45:08.864Z,30.57
2019-05-20T10:47:40.498Z,31.04
2019-05-20T10:50:14.776Z,30.90
2019-05-20T10:52:47.359Z,30.71
2019-05-20T10:55:18.893Z,30.60
2019-05-20T10:57:51.238Z,30.96
2019-05-20T11:00:24.602Z,30.12
2019-05-20T11:02:56.247Z,30.55
2019-05-20T11:05:27.925Z,29.91
2019-05-20T11:08:00.348Z,30.07
2019-05-20T11:10:32.973Z,29.71
2019-05-20T11:13:04.472Z,29.64
2019-05-20T11:15:36.103Z,29.06
2019-05-20T11:18:09.585Z,29.35
2019-05-20T11:20:54.536Z,29.17
2019-05-20T11:23:26.400Z,29.40
2019-05-20T11:25:57.889Z,28.62
2019-05-20T11:28:29.532Z,28.68
2019-05-20T11:31:01.255Z,29.06
2019-05-20T11:33:32.695Z,29.17
2019-05-20T11:36:04.216Z,28.72
2019-05-20T11:38:35.896Z,28.59
2019-05-20T11:41:07.970Z,29.01
2019-05-20T11:43:40.186Z,29.52
2019-05-20T11:46:13.655Z,28.57
2019-05-20T11:48:45.176Z,28.70
2019-05-20T11:51:17.010Z,29.13
2019-05-20T11:53:49.907Z,28.59
2019-05-20T11:56:22.657Z,28.25
2019-05-20T11:58:54.399Z,29.11
2019-05-20T12:01:28.177Z,29.58
2019-05-20T12:04:01.158Z,29.09
2019-05-20T12:06:32.900Z,28.47
2019-05-20T12:09:06.405Z,29.67
2019-05-20T12:11:38.223Z,29.16
2019-05-20T12:14:10.888Z,29.14
2019-05-20T12:16:42.463Z,28.99
2019-05-20T12:19:14.295Z,28.46
2019-05-20T12:21:46.030Z,28.63
2019-05-20T12:24:27.482Z,28.75
2019-05-20T12:27:12.302Z,29.18
2019-05-20T12:29:57.768Z,29.40
2019-05-20T12:32:30.504Z,29.40
2019-05-20T12:35:02.236Z,28.13
2019-05-20T12:37:33.923Z,28.04
2019-05-20T12:40:08.301Z,28.65
2019-05-20T12:42:40.405Z,29.53
2019-05-20T12:45:12.011Z,28.67
2019-05-20T12:47:45.619Z,28.80
2019-05-20T12:50:18.047Z,28.22
2019-05-20T12:52:49.632Z,28.73
2019-05-20T12:55:21.465Z,28.65
2019-05-20T12:57:57.573Z,29.19
2019-05-20T13:00:29.114Z,28.39
2019-05-20T13:03:00.905Z,29.04
2019-05-20T13:05:32.395Z,29.14
2019-05-20T13:08:04.245Z,28.10
2019-05-20T13:10:36.073Z,28.44
2019-05-20T13:13:07.574Z,28.77
2019-05-20T13:15:39.261Z,28.21
2019-05-20T13:18:14.945Z,29.05
2019-05-20T13:20:47.636Z,29.19
2019-05-20T13:23:19.140Z,28.64
2019-05-20T13:25:50.641Z,28.86
2019-05-20T13:28:22.285Z,28.95
2019-05-20T13:30:53.960Z,29.23
2019-05-20T13:33:25.388Z,28.43
2019-05-20T13:35:57.945Z,28.56
2019-05-20T13:38:29.568Z,28.75
2019-05-20T13:41:01.268Z,28.84
2019-05-20T13:43:32.866Z,28.92
2019-05-20T13:46:04.424Z,28.60
2019-05-20T13:48:36.112Z,28.89
2019-05-20T13:51:09.895Z,28.94
2019-05-20T13:53:41.458Z,29.15
2019-05-20T13:56:14.985Z,29.01
2019-05-20T13:58:51.926Z,29.05
2019-05-20T14:01:23.560Z,29.55
2019-05-20T14:03:57.395Z,29.88
2019-05-20T14:06:29.221Z,29.27
2019-05-20T14:09:00.687Z,29.60
2019-05-20T14:11:34.861Z,29.26
2019-05-20T14:14:06.752Z,28.89
2019-05-20T14:16:39.378Z,28.93
2019-05-20T14:19:12.036Z,29.59
2019-05-20T14:21:45.750Z,29.19
2019-05-20T14:24:17.304Z,29.72
2019-05-20T14:26:48.730Z,28.79
2019-05-20T14:29:20.253Z,29.16
2019-05-20T14:31:51.859Z,28.99
2019-05-20T14:34:23.361Z,28.97
2019-05-20T14:36:54.840Z,29.07
2019-05-20T14:39:28.509Z,29.13
2019-05-20T14:42:00.161Z,29.06
2019-05-20T14:44:31.754Z,29.18
2019-05-20T14:47:04.577Z,28.97
2019-05-20T14:49:37.404Z,29.35
2019-05-20T14:52:09.922Z,29.05
2019-05-20T14:54:41.550Z,28.79
2019-05-20T14:57:13.442Z,29.32
2019-05-20T14:59:46.286Z,29.65
2019-05-20T15:02:20.083Z,29.98
2019-05-20T15:04:52.081Z,29.50
2019-05-20T15:07:30.950Z,29.56
2019-05-20T15:10:00.597Z,29.74
2019-05-20T15:12:32.500Z,30.10
2019-05-20T15:15:07.478Z,30.12
2019-05-20T15:17:39.423Z,30.31
2019-05-20T15:20:12.515Z,30.02
2019-05-20T15:22:44.057Z,30.86
2019-05-20T15:25:15.714Z,30.15
2019-05-20T15:27:49.798Z,30.56
2019-05-20T15:30:21.804Z,30.49
2019-05-20T15:32:54.858Z,30.89
2019-05-20T15:35:27.669Z,31.15
2019-05-20T15:38:00.284Z,31.71
2019-05-20T15:40:32.162Z,31.67
2019-05-20T15:43:05.949Z,31.25
2019-05-20T15:45:44.528Z,31.43
2019-05-20T15:48:16.181Z,31.28
2019-05-20T15:50:48.711Z,31.37
2019-05-20T15:53:20.419Z,31.67
2019-05-20T15:55:57.620Z,31.92
2019-05-20T15:58:29.307Z,32.33
2019-05-20T16:01:00.803Z,32.75
2019-05-20T16:03:33.607Z,32.54
2019-05-20T16:06:07.216Z,32.13
2019-05-20T16:08:43.523Z,32.57
2019-05-20T16:11:15.024Z,32.31
2019-05-20T16:13:46.497Z,32.17
2019-05-20T16:16:18.023Z,32.07
2019-05-20T16:18:50.491Z,32.45
2019-05-20T16:21:21.897Z,32.84
2019-05-20T16:23:53.346Z,32.94
2019-05-20T16:26:24.947Z,32.71
2019-05-20T16:28:56.842Z,32.96
2019-05-20T16:31:30.616Z,32.93
2019-05-20T16:34:02.219Z,33.15
2019-05-20T16:36:33.971Z,33.24
2019-05-20T16:39:06.800Z,32.94
2019-05-20T16:41:40.715Z,33.33
2019-05-20T16:44:17.662Z,33.34
2019-05-20T16:46:49.466Z,33.28
2019-05-20T16:49:22.054Z,33.43
2019-05-20T16:51:55.916Z,33.49
2019-05-20T16:54:27.500Z,34.03
2019-05-20T16:56:59.255Z,34.04
2019-05-20T16:59:31.732Z,34.35
2019-05-20T17:02:03.328Z,34.18
2019-05-20T17:04:35.179Z,34.39
2019-05-20T17:07:07.667Z,34.64
2019-05-20T17:09:41.239Z,34.87
2019-05-20T17:12:13.175Z,35.01
2019-05-20T17:14:45.022Z,34.89
2019-05-20T17:17:17.982Z,34.94
2019-05-20T17:19:50.857Z,35.05
2019-05-20T17:22:24.610Z,35.12
2019-05-20T17:24:56.712Z,35.48
2019-05-20T17:27:29.003Z,35.80
2019-05-20T17:30:00.664Z,35.75
2019-05-20T17:32:32.166Z,35.99
2019-05-20T17:35:03.811Z,36.18
2019-05-20T17:37:37.165Z,36.21
2019-05-20T17:40:09.556Z,36.53
2019-05-20T17:42:41.494Z,36.70
2019-05-20T17:45:15.875Z,36.52
2019-05-20T17:47:47.775Z,36.83
2019-05-20T17:50:23.294Z,37.05
2019-05-20T17:52:54.825Z,37.03
2019-05-20T17:55:26.715Z,37.02
2019-05-20T17:57:58.357Z,37.30
2019-05-20T18:00:30.089Z,37.31
2019-05-20T18:03:02.532Z,37.08
2019-05-20T18:05:38.593Z,37.56
2019-05-20T18:08:10.408Z,37.46
2019-05-20T18:10:42.161Z,37.53
2019-05-20T18:13:13.689Z,37.80
2019-05-20T18:15:45.432Z,37.82
2019-05-20T18:18:23.622Z,38.02
2019-05-20T18:20:58.143Z,38.05
2019-05-20T18:23:34.883Z,38.32
2019-05-20T18:26:10.954Z,38.57
2019-05-20T18:28:42.490Z,38.92
2019-05-20T18:31:31.176Z,39.28
2019-05-20T18:33:51.428Z,39.21
2019-05-20T18:36:25.025Z,39.37
2019-05-20T18:38:58.482Z,39.48
2019-05-20T18:41:30.553Z,39.30
2019-05-20T18:44:02.171Z,39.21
2019-05-20T18:46:33.615Z,39.33
2019-05-20T18:49:05.316Z,39.10
2019-05-20T18:51:37.783Z,39.30
2019-05-20T18:54:10.957Z,38.73
2019-05-20T18:56:42.450Z,38.81
2019-05-20T18:59:13.914Z,38.76
2019-05-20T19:02:02.366Z,38.44
2019-05-20T19:04:20.595Z,38.58
2019-05-20T19:06:52.070Z,38.21
2019-05-20T19:09:23.638Z,38.48
2019-05-20T19:11:56.042Z,38.69
2019-05-20T19:14:27.610Z,38.68
2019-05-20T19:16:59.390Z,38.79
2019-05-20T19:19:30.826Z,39.10
2019-05-20T19:22:03.582Z,38.73
2019-05-20T19:24:35.960Z,38.80
2019-05-20T19:27:07.845Z,38.64
2019-05-20T19:29:39.354Z,38.58
2019-05-20T19:32:12.102Z,38.74
2019-05-20T19:34:45.191Z,39.13
2019-05-20T19:37:19.685Z,39.84
2019-05-20T19:39:51.127Z,39.92
2019-05-20T19:42:22.470Z,40.01
2019-05-20T19:44:54.869Z,40.81
2019-05-20T19:47:26.291Z,40.28
2019-05-20T19:49:57.727Z,40.07
2019-05-20T19:52:30.861Z,40.07
2019-05-20T19:55:03.787Z,39.78
2019-05-20T19:57:36.186Z,39.40
2019-05-20T20:00:09.845Z,39.59
2019-05-20T20:02:41.251Z,39.57
2019-05-20T20:05:12.941Z,39.98
2019-05-20T20:07:44.481Z,39.82
2019-05-20T20:10:16.147Z,40.13
2019-05-20T20:12:47.792Z,40.32
2019-05-20T20:15:20.125Z,40.52
2019-05-20T20:17:51.712Z,40.72
2019-05-20T20:20:23.107Z,40.74
2019-05-20T20:22:57.809Z,40.74
2019-05-20T20:25:29.484Z,40.60
2019-05-20T20:28:00.764Z,40.59
2019-05-20T20:30:32.420Z,40.71
2019-05-20T20:33:04.882Z,41.20
2019-05-20T20:35:38.473Z,41.08
2019-05-20T20:38:11.164Z,41.27
2019-05-20T20:40:42.640Z,41.51
2019-05-20T20:43:16.061Z,41.23
2019-05-20T20:45:51.029Z,41.29
2019-05-20T20:48:22.590Z,40.90
2019-05-20T20:50:56.118Z,41.21
2019-05-20T20:53:32.178Z,41.13
2019-05-20T20:56:04.076Z,41.23
2019-05-20T20:58:35.860Z,41.20
2019-05-20T21:01:10.093Z,41.52
2019-05-20T21:03:41.768Z,41.39
2019-05-20T21:06:13.271Z,41.47
2019-05-20T21:08:45.798Z,41.91
2019-05-20T21:11:17.232Z,42.83
2019-05-20T21:13:48.781Z,42.32
2019-05-20T21:16:20.335Z,42.04
2019-05-20T21:18:51.742Z,42.21
2019-05-20T21:21:24.287Z,42.29
2019-05-20T21:23:55.746Z,42.48
2019-05-20T21:26:27.187Z,42.55
2019-05-20T21:28:58.728Z,42.80
2019-05-20T21:31:31.691Z,42.95
2019-05-20T21:34:03.185Z,42.98
2019-05-20T21:36:47.260Z,43.17
2019-05-20T21:39:08.303Z,43.14
2019-05-20T21:41:39.850Z,43.35
2019-05-20T21:44:11.314Z,43.47
2019-05-20T21:46:43.705Z,43.40
2019-05-20T21:49:15.231Z,43.60
2019-05-20T21:51:46.699Z,43.70
2019-05-20T21:54:18.128Z,43.95
2019-05-20T21:56:50.205Z,43.75
2019-05-20T21:59:21.876Z,43.77
2019-05-20T22:01:53.386Z,43.93
2019-05-20T22:04:24.801Z,44.21
2019-05-20T22:06:57.195Z,44.33
2019-05-20T22:09:28.584Z,44.58
2019-05-20T22:12:00.131Z,44.42
2019-05-20T22:14:31.678Z,44.48
2019-05-20T22:17:03.224Z,44.48
2019-05-20T22:19:34.706Z,44.62
2019-05-20T22:22:24.978Z,44.70
2019-05-20T22:24:57.332Z,44.62
2019-05-20T22:27:30.057Z,44.73
2019-05-20T22:30:01.592Z,45.01
2019-05-20T22:32:34.220Z,44.70
2019-05-20T22:35:08.110Z,44.97
2019-05-20T22:37:39.606Z,45.06
2019-05-20T22:40:12.413Z,44.93
2019-05-20T22:42:46.062Z,45.13
2019-05-20T22:45:19.613Z,45.27
2019-05-20T22:47:52.171Z,45.29
2019-05-20T22:50:23.700Z,45.27
2019-05-20T22:52:55.263Z,45.50
2019-05-20T22:55:26.805Z,45.74
2019-05-20T22:57:58.319Z,45.86
2019-05-20T23:00:29.874Z,46.18
2019-05-20T23:03:01.454Z,46.34
2019-05-20T23:05:33.060Z,46.22
2019-05-20T23:08:04.622Z,46.44
2019-05-20T23:10:38.179Z,46.43
2019-05-20T23:13:11.052Z,46.62
2019-05-20T23:15:42.974Z,46.64
2019-05-20T23:18:14.373Z,46.90
2019-05-20T23:20:45.829Z,46.91
2019-05-20T23:23:17.331Z,46.91
2019-05-20T23:25:52.831Z,46.98
2019-05-20T23:28:23.230Z,47.15
2019-05-20T23:30:56.151Z,47.05
2019-05-20T23:33:27.514Z,47.30
2019-05-20T23:35:59.067Z,47.18
2019-05-20T23:38:30.480Z,47.30
2019-05-20T23:41:02.006Z,47.53
2019-05-20T23:43:33.459Z,47.70
2019-05-20T23:46:04.906Z,47.73
2019-05-20T23:48:36.409Z,47.54
2019-05-20T23:51:08.029Z,47.63
2019-05-20T23:53:39.497Z,47.75
2019-05-20T23:56:11.980Z,47.94
2019-05-20T23:58:44.330Z,47.65
